createdAt,value
2023-03-17T00:01:34.681Z,64.30
2023-03-17T00:04:05.171Z,64.30
2023-03-17T00:06:36.220Z,64.00
2023-03-17T00:09:15.264Z,64.10
2023-03-17T00:12:20.816Z,63.60
2023-03-17T00:14:52.388Z,64.90
2023-03-17T00:17:22.500Z,65.50
2023-03-17T00:20:10.424Z,66.50
2023-03-17T00:25:47.637Z,67.30
2023-03-17T00:28:21.328Z,65.90
2023-03-17T00:30:56.597Z,66.10
2023-03-17T00:33:28.338Z,66.00
2023-03-17T00:38:53.054Z,67.50
2023-03-17T00:41:23.069Z,67.60
2023-03-17T00:44:28.203Z,68.10
2023-03-17T00:47:16.871Z,68.20
2023-03-17T00:49:46.886Z,68.50
2023-03-17T00:55:22.033Z,68.30
2023-03-17T00:57:53.284Z,68.30
2023-03-17T01:00:26.767Z,68.40
2023-03-17T01:03:17.066Z,69.90
2023-03-17T01:05:48.210Z,71.70
2023-03-17T01:08:18.519Z,72.70
2023-03-17T01:11:07.185Z,72.20
2023-03-17T01:13:37.190Z,73.10
2023-03-17T01:16:26.068Z,73.00
2023-03-17T01:18:57.777Z,72.00
2023-03-17T01:21:28.132Z,71.90
2023-03-17T01:23:58.058Z,72.40
2023-03-17T01:26:28.366Z,71.90
2023-03-17T01:28:58.598Z,72.70
2023-03-17T01:31:29.153Z,72.80
2023-03-17T01:34:18.493Z,71.20
2023-03-17T01:36:49.028Z,70.50
2023-03-17T01:39:36.465Z,71.40
2023-03-17T01:42:24.580Z,71.90
2023-03-17T01:45:02.914Z,72.60
2023-03-17T01:47:34.051Z,72.50
2023-03-17T01:50:08.973Z,73.70
2023-03-17T01:53:00.304Z,73.60
2023-03-17T01:55:32.158Z,75.50
2023-03-17T01:58:02.376Z,75.30
2023-03-17T02:00:32.890Z,73.90
2023-03-17T02:03:21.760Z,74.10
2023-03-17T02:05:54.650Z,74.30
2023-03-17T02:08:29.476Z,73.60
2023-03-17T02:10:59.304Z,73.60
2023-03-17T02:13:46.407Z,74.70
2023-03-17T02:16:18.474Z,74.10
2023-03-17T02:18:50.231Z,74.20
2023-03-17T02:21:47.072Z,74.80
2023-03-17T02:24:32.647Z,75.90
2023-03-17T02:27:07.477Z,75.40
2023-03-17T02:29:39.581Z,74.10
2023-03-17T02:32:11.749Z,73.50
2023-03-17T02:34:41.944Z,73.50
2023-03-17T02:37:31.300Z,73.50
2023-03-17T02:40:20.771Z,74.40
2023-03-17T02:42:50.894Z,74.70
2023-03-17T02:45:21.020Z,75.60
2023-03-17T02:47:52.067Z,75.80
2023-03-17T02:50:41.322Z,75.20
2023-03-17T02:55:59.682Z,74.20
2023-03-17T03:01:34.881Z,75.30
2023-03-17T03:04:23.407Z,75.90
2023-03-17T03:06:53.365Z,75.50
2023-03-17T03:09:26.196Z,76.10
2023-03-17T03:11:56.207Z,76.60
2023-03-17T03:14:26.118Z,75.20
2023-03-17T03:16:56.037Z,75.20
2023-03-17T03:19:25.956Z,76.50
2023-03-17T03:21:56.637Z,76.40
2023-03-17T03:24:28.974Z,76.40
2023-03-17T03:26:59.187Z,76.10
2023-03-17T03:32:35.035Z,75.80
2023-03-17T03:35:06.295Z,76.80
2023-03-17T03:40:27.710Z,78.60
2023-03-17T03:43:23.097Z,79.10
2023-03-17T03:45:55.106Z,80.90
2023-03-17T03:48:25.545Z,83.10
2023-03-17T03:50:59.343Z,84.10
2023-03-17T03:53:48.709Z,83.80
2023-03-17T03:56:38.792Z,83.90
2023-03-17T03:59:09.116Z,83.90
2023-03-17T04:01:39.327Z,83.90
2023-03-17T04:04:26.268Z,84.20
2023-03-17T04:06:57.107Z,83.90
2023-03-17T04:09:46.147Z,83.50
2023-03-17T04:12:18.013Z,83.80
2023-03-17T04:15:04.878Z,84.00
2023-03-17T04:17:34.842Z,82.70
2023-03-17T04:20:04.868Z,83.20
2023-03-17T04:22:34.868Z,82.50
2023-03-17T04:25:04.685Z,82.10
2023-03-17T04:27:54.961Z,83.40
2023-03-17T04:30:43.631Z,84.00
2023-03-17T04:33:31.468Z,83.30
2023-03-17T04:39:05.803Z,83.00
2023-03-17T04:41:35.813Z,82.50
2023-03-17T04:44:07.768Z,81.70
2023-03-17T04:49:26.450Z,81.70
2023-03-17T04:51:56.361Z,81.40
2023-03-17T04:58:38.078Z,80.30
2023-03-17T05:03:57.568Z,80.60
2023-03-17T05:06:27.575Z,79.60
2023-03-17T05:08:57.384Z,80.10
2023-03-17T05:11:27.499Z,80.00
2023-03-17T05:13:57.433Z,79.60
2023-03-17T05:16:28.997Z,80.00
2023-03-17T05:18:59.022Z,80.80
2023-03-17T05:21:47.341Z,83.10
2023-03-17T05:24:17.152Z,83.70
2023-03-17T05:29:36.324Z,83.00
2023-03-17T05:32:08.608Z,83.10
2023-03-17T05:34:38.811Z,83.10
2023-03-17T05:37:27.273Z,83.80
2023-03-17T05:39:57.094Z,84.90
2023-03-17T05:42:26.999Z,85.70
2023-03-17T05:47:45.563Z,86.20
2023-03-17T05:50:15.879Z,86.40
2023-03-17T05:52:45.794Z,86.50
2023-03-17T05:55:15.602Z,88.30
2023-03-17T05:58:22.601Z,90.40
2023-03-17T06:00:52.918Z,90.90
2023-03-17T06:03:24.713Z,90.90
2023-03-17T06:05:54.699Z,90.90
2023-03-17T06:08:24.826Z,90.70
2023-03-17T06:10:54.841Z,90.30
2023-03-17T06:13:25.168Z,90.20
2023-03-17T06:15:54.884Z,89.90
2023-03-17T06:18:26.521Z,87.20
2023-03-17T06:20:56.544Z,86.70
2023-03-17T06:23:26.662Z,86.10
2023-03-17T06:25:56.587Z,85.70
2023-03-17T06:28:26.378Z,84.60
2023-03-17T06:30:56.336Z,83.80
2023-03-17T06:33:28.298Z,82.30
2023-03-17T06:36:00.295Z,80.70
2023-03-17T06:38:30.334Z,80.50
2023-03-17T06:41:00.052Z,79.50
2023-03-17T06:43:31.901Z,79.50
2023-03-17T06:46:20.512Z,79.20
2023-03-17T06:48:52.211Z,79.60
2023-03-17T06:51:21.929Z,79.60
2023-03-17T06:53:51.844Z,80.50
2023-03-17T06:56:29.923Z,80.40
2023-03-17T06:59:01.310Z,80.50
2023-03-17T07:01:31.533Z,81.00
2023-03-17T07:04:03.480Z,80.20
2023-03-17T07:06:34.101Z,80.30
2023-03-17T07:09:04.434Z,81.20
2023-03-17T07:11:34.370Z,80.70
2023-03-17T07:14:04.770Z,79.70
2023-03-17T07:16:53.534Z,77.60
2023-03-17T07:19:43.733Z,78.30
2023-03-17T07:22:14.770Z,78.50
2023-03-17T07:24:48.056Z,77.50
2023-03-17T07:27:21.640Z,77.10
2023-03-17T07:29:52.901Z,76.70
2023-03-17T07:32:22.917Z,76.00
2023-03-17T07:34:55.180Z,76.00
2023-03-17T07:37:25.301Z,75.70
2023-03-17T07:39:55.313Z,73.70
2023-03-17T07:42:25.233Z,74.50
2023-03-17T07:44:55.152Z,73.40
2023-03-17T07:47:43.610Z,71.90
2023-03-17T07:50:16.496Z,72.00
2023-03-17T07:52:46.594Z,72.50
2023-03-17T07:55:16.756Z,71.50
2023-03-17T07:57:46.674Z,71.10
2023-03-17T08:00:53.811Z,71.00
2023-03-17T08:03:41.824Z,70.80
2023-03-17T08:06:13.720Z,70.60
2023-03-17T08:09:01.652Z,70.60
2023-03-17T08:11:31.562Z,69.70
2023-03-17T08:14:38.140Z,68.10
2023-03-17T08:17:08.443Z,69.50
2023-03-17T08:19:55.723Z,69.30
2023-03-17T08:22:45.983Z,69.90
2023-03-17T08:25:15.899Z,68.80
2023-03-17T08:27:47.283Z,66.90
2023-03-17T08:33:05.532Z,67.00
2023-03-17T08:35:35.643Z,67.20
2023-03-17T08:38:07.073Z,65.70
2023-03-17T08:40:37.295Z,64.80
2023-03-17T08:43:08.352Z,63.50
2023-03-17T08:45:38.555Z,63.10
2023-03-17T08:48:08.980Z,62.70
2023-03-17T08:50:39.104Z,62.90
2023-03-17T08:53:10.561Z,63.50
2023-03-17T08:55:40.562Z,62.60
2023-03-17T08:58:10.589Z,61.10
2023-03-17T09:00:58.796Z,59.90
2023-03-17T09:03:29.484Z,59.60
2023-03-17T09:06:17.808Z,58.50
2023-03-17T09:09:07.483Z,60.40
2023-03-17T09:11:38.315Z,59.10
2023-03-17T09:14:08.335Z,60.50
2023-03-17T09:16:38.255Z,60.40
2023-03-17T09:19:08.602Z,58.10
2023-03-17T09:21:39.307Z,56.90
2023-03-17T09:25:05.438Z,56.90
2023-03-17T09:27:35.763Z,57.00
2023-03-17T09:30:22.899Z,52.80
2023-03-17T09:32:53.688Z,51.30
2023-03-17T09:35:23.456Z,51.00
2023-03-17T09:37:53.338Z,51.90
2023-03-17T09:40:33.274Z,49.10
2023-03-17T09:43:30.739Z,47.70
2023-03-17T09:46:10.020Z,48.10
2023-03-17T09:51:53.839Z,42.50
2023-03-17T09:54:45.860Z,39.20
2023-03-17T09:57:22.446Z,41.40
2023-03-17T09:59:59.006Z,43.60
2023-03-17T10:02:32.631Z,41.00
2023-03-17T10:05:13.151Z,44.70
2023-03-17T10:07:48.004Z,45.60
2023-03-17T10:10:26.420Z,44.60
2023-03-17T10:13:07.084Z,44.20
2023-03-17T10:15:44.379Z,45.10
2023-03-17T10:18:39.175Z,44.80
2023-03-17T10:21:12.663Z,42.50
2023-03-17T10:23:43.923Z,40.60
2023-03-17T10:26:26.531Z,42.90
2023-03-17T10:31:33.556Z,38.40
2023-03-17T10:34:15.423Z,40.90
2023-03-17T10:36:48.700Z,44.10
2023-03-17T10:39:22.102Z,39.80
2023-03-17T10:41:58.386Z,37.80
2023-03-17T10:44:43.044Z,37.80
2023-03-17T10:47:32.310Z,38.70
2023-03-17T10:50:06.825Z,36.40
2023-03-17T10:52:41.654Z,38.10
2023-03-17T10:55:16.712Z,37.00
2023-03-17T10:57:57.959Z,38.30
2023-03-17T11:00:35.864Z,41.30
2023-03-17T11:06:04.892Z,38.30
2023-03-17T11:08:53.962Z,37.50
2023-03-17T11:11:27.956Z,38.50
2023-03-17T11:14:05.023Z,37.60
2023-03-17T11:16:39.593Z,36.50
2023-03-17T11:22:12.056Z,36.30
2023-03-17T11:24:50.264Z,35.90
2023-03-17T11:27:29.858Z,37.20
2023-03-17T11:30:18.852Z,34.60
2023-03-17T11:35:53.637Z,37.60
2023-03-17T11:38:26.487Z,35.40
2023-03-17T11:41:23.646Z,33.90
2023-03-17T11:44:16.812Z,34.80
2023-03-17T11:47:09.654Z,36.00
2023-03-17T11:49:42.743Z,35.00
2023-03-17T11:52:23.418Z,34.80
2023-03-17T11:55:00.221Z,33.20
2023-03-17T11:57:35.943Z,34.70
2023-03-17T12:00:09.534Z,35.20
2023-03-17T12:02:45.605Z,33.90
2023-03-17T12:05:22.389Z,35.10
2023-03-17T12:11:08.993Z,33.90
2023-03-17T12:13:43.821Z,33.50
2023-03-17T12:16:21.919Z,33.90
2023-03-17T12:19:03.617Z,33.30
2023-03-17T12:21:39.469Z,32.80
2023-03-17T12:24:19.118Z,33.60
2023-03-17T12:26:56.401Z,32.90
2023-03-17T12:29:32.563Z,32.30
2023-03-17T12:32:09.121Z,32.20
2023-03-17T12:34:47.046Z,31.50
2023-03-17T12:37:20.532Z,30.90
2023-03-17T12:39:59.160Z,31.20
2023-03-17T12:42:40.036Z,31.90
2023-03-17T12:45:50.531Z,31.20
2023-03-17T12:48:59.746Z,30.40
2023-03-17T12:51:52.376Z,30.10
2023-03-17T12:54:29.551Z,30.50
2023-03-17T12:57:05.100Z,30.40
2023-03-17T12:59:35.936Z,30.50
2023-03-17T13:02:19.666Z,29.90
2023-03-17T13:04:58.617Z,30.10
2023-03-17T13:07:34.857Z,30.50
2023-03-17T13:10:40.618Z,31.40
2023-03-17T13:13:36.238Z,30.70
2023-03-17T13:19:20.496Z,30.90
2023-03-17T13:24:49.539Z,31.30
2023-03-17T13:27:45.949Z,29.90
2023-03-17T13:30:54.177Z,29.90
2023-03-17T13:33:29.706Z,30.00
2023-03-17T13:36:16.108Z,29.10
2023-03-17T13:39:36.831Z,29.40
2023-03-17T13:42:22.412Z,29.70
2023-03-17T13:45:16.735Z,29.90
2023-03-17T13:50:35.566Z,29.60
2023-03-17T13:53:10.998Z,29.40
2023-03-17T13:55:42.700Z,29.70
2023-03-17T13:58:26.501Z,28.90
2023-03-17T14:01:23.440Z,29.10
2023-03-17T14:03:54.454Z,28.60
2023-03-17T14:06:31.562Z,29.20
2023-03-17T14:09:31.140Z,29.00
2023-03-17T14:12:23.306Z,28.80
2023-03-17T14:14:58.337Z,28.60
2023-03-17T14:17:34.412Z,28.70
2023-03-17T14:22:58.714Z,28.90
2023-03-17T14:25:33.907Z,28.80
2023-03-17T14:28:10.768Z,29.10
2023-03-17T14:30:42.379Z,28.90
2023-03-17T14:33:51.831Z,28.80
2023-03-17T14:36:22.761Z,28.30
2023-03-17T14:38:54.201Z,28.30
2023-03-17T14:41:25.763Z,28.00
2023-03-17T14:44:02.126Z,29.10
2023-03-17T14:46:46.570Z,29.20
2023-03-17T14:49:27.648Z,29.30
2023-03-17T14:52:16.528Z,29.90
2023-03-17T14:54:52.694Z,29.60
2023-03-17T14:57:30.271Z,29.90
2023-03-17T15:00:03.194Z,29.80
2023-03-17T15:02:36.528Z,31.20
2023-03-17T15:05:20.612Z,30.40
2023-03-17T15:10:45.720Z,30.70
2023-03-17T15:16:08.750Z,31.40
2023-03-17T15:18:40.751Z,31.20
2023-03-17T15:21:30.121Z,30.40
2023-03-17T15:24:07.607Z,30.70
2023-03-17T15:26:41.322Z,31.60
2023-03-17T15:29:30.902Z,32.50
2023-03-17T15:32:16.272Z,31.90
2023-03-17T15:34:48.341Z,32.50
2023-03-17T15:37:43.740Z,32.20
2023-03-17T15:40:16.825Z,31.20
2023-03-17T15:42:50.329Z,32.50
2023-03-17T15:45:21.268Z,33.60
2023-03-17T15:47:52.212Z,33.90
2023-03-17T15:50:45.463Z,35.20
2023-03-17T15:53:17.982Z,32.80
2023-03-17T15:55:49.799Z,34.00
2023-03-17T15:58:25.347Z,33.20
2023-03-17T16:01:15.479Z,32.40
2023-03-17T16:04:05.565Z,33.00
2023-03-17T16:06:37.763Z,36.00
2023-03-17T16:09:19.361Z,34.80
2023-03-17T16:11:53.278Z,33.20
2023-03-17T16:14:26.288Z,33.40
2023-03-17T16:19:28.870Z,29.70
2023-03-17T16:22:00.904Z,30.50
2023-03-17T16:24:34.312Z,30.60
2023-03-17T16:27:05.066Z,29.90
2023-03-17T16:29:36.716Z,30.40
2023-03-17T16:34:59.499Z,30.80
2023-03-17T16:37:29.821Z,32.40
2023-03-17T16:40:01.823Z,32.60
2023-03-17T16:42:32.709Z,32.70
2023-03-17T16:45:02.738Z,32.40
2023-03-17T16:47:32.852Z,32.80
2023-03-17T16:50:02.923Z,33.20
2023-03-17T16:52:32.880Z,33.40
2023-03-17T16:55:04.326Z,33.30
2023-03-17T16:57:34.439Z,33.40
2023-03-17T17:00:04.873Z,33.00
2023-03-17T17:02:36.961Z,34.00
2023-03-17T17:05:15.971Z,34.30
2023-03-17T17:07:49.979Z,35.00
2023-03-17T17:10:25.011Z,37.70
2023-03-17T17:15:47.945Z,40.50
2023-03-17T17:18:25.577Z,41.60
2023-03-17T17:21:33.493Z,42.10
2023-03-17T17:24:03.492Z,43.00
2023-03-17T17:26:35.561Z,43.50
2023-03-17T17:29:23.696Z,44.00
2023-03-17T17:32:27.459Z,44.10
2023-03-17T17:34:58.045Z,43.90
2023-03-17T17:37:45.054Z,44.80
2023-03-17T17:40:33.836Z,45.00
2023-03-17T17:43:05.813Z,45.40
2023-03-17T17:45:53.916Z,45.60
2023-03-17T17:48:26.704Z,45.50
2023-03-17T17:50:57.937Z,46.30
2023-03-17T17:53:27.785Z,46.30
2023-03-17T17:55:58.183Z,46.80
2023-03-17T17:58:49.301Z,47.40
2023-03-17T18:01:23.134Z,47.40
2023-03-17T18:04:13.153Z,48.10
2023-03-17T18:07:01.841Z,47.80
2023-03-17T18:09:32.067Z,49.40
2023-03-17T18:12:18.978Z,49.80
2023-03-17T18:14:50.981Z,50.40
2023-03-17T18:17:22.582Z,51.40
2023-03-17T18:19:54.976Z,51.80
2023-03-17T18:22:24.970Z,51.80
2023-03-17T18:25:13.220Z,52.20
2023-03-17T18:27:43.857Z,51.80
2023-03-17T18:30:36.190Z,52.60
2023-03-17T18:33:27.207Z,52.50
2023-03-17T18:35:58.398Z,52.90
2023-03-17T18:38:28.569Z,53.30
2023-03-17T18:40:58.789Z,52.50
2023-03-17T18:43:46.836Z,53.20
2023-03-17T18:46:18.657Z,52.10
2023-03-17T18:48:48.711Z,53.00
2023-03-17T18:51:18.813Z,54.30
2023-03-17T18:53:49.350Z,53.70
2023-03-17T18:56:19.597Z,54.10
2023-03-17T18:58:49.689Z,54.40
2023-03-17T19:01:21.223Z,55.20
2023-03-17T19:03:52.000Z,55.50
2023-03-17T19:06:23.940Z,56.40
2023-03-17T19:08:53.957Z,58.90
2023-03-17T19:11:24.999Z,58.50
2023-03-17T19:13:55.527Z,58.70
2023-03-17T19:16:29.387Z,59.50
2023-03-17T19:19:00.776Z,59.70
2023-03-17T19:21:47.810Z,59.10
2023-03-17T19:24:17.706Z,59.80
2023-03-17T19:27:06.760Z,60.30
2023-03-17T19:29:36.705Z,59.90
2023-03-17T19:32:08.647Z,60.40
2023-03-17T19:34:56.686Z,61.40
2023-03-17T19:40:15.560Z,61.40
2023-03-17T19:42:46.208Z,62.20
2023-03-17T19:45:16.428Z,61.20
2023-03-17T19:47:47.973Z,60.70
2023-03-17T19:50:18.188Z,61.60
2023-03-17T19:53:04.901Z,61.60
2023-03-17T19:55:35.011Z,61.30
2023-03-17T19:58:06.160Z,61.20
2023-03-17T20:03:26.308Z,61.40
2023-03-17T20:06:06.829Z,61.50
2023-03-17T20:08:40.535Z,61.40
2023-03-17T20:11:10.548Z,61.20
2023-03-17T20:13:41.571Z,61.50
2023-03-17T20:16:14.289Z,62.30
2023-03-17T20:21:34.715Z,62.10
2023-03-17T20:24:04.755Z,62.20
2023-03-17T20:26:34.928Z,62.10
2023-03-17T20:29:04.828Z,62.80
2023-03-17T20:31:35.063Z,63.40
2023-03-17T20:34:08.241Z,64.00
2023-03-17T20:36:48.499Z,65.00
2023-03-17T20:39:21.485Z,62.40
2023-03-17T20:41:52.935Z,64.40
2023-03-17T20:44:24.479Z,63.30
2023-03-17T20:46:55.364Z,62.80
2023-03-17T20:49:26.973Z,63.30
2023-03-17T20:52:04.562Z,64.20
2023-03-17T20:54:36.430Z,63.80
2023-03-17T20:57:06.385Z,64.30
2023-03-17T20:59:36.971Z,65.10
2023-03-17T21:02:25.529Z,65.30
2023-03-17T21:04:57.899Z,65.80
2023-03-17T21:07:46.868Z,66.00
2023-03-17T21:10:17.804Z,65.70
2023-03-17T21:12:48.429Z,66.40
2023-03-17T21:15:18.756Z,67.30
2023-03-17T21:18:07.422Z,67.60
2023-03-17T21:20:38.858Z,65.40
2023-03-17T21:23:09.092Z,67.10
2023-03-17T21:25:58.138Z,67.40
2023-03-17T21:28:45.392Z,66.90
2023-03-17T21:31:33.640Z,67.10
2023-03-17T21:34:04.328Z,67.00
2023-03-17T21:36:54.221Z,66.90
2023-03-17T21:39:40.826Z,67.00
2023-03-17T21:42:12.777Z,66.40
2023-03-17T21:44:43.223Z,65.80
2023-03-17T21:47:30.425Z,66.60
2023-03-17T21:50:00.351Z,67.20
2023-03-17T21:52:32.109Z,68.10
2023-03-17T21:55:03.451Z,68.40
2023-03-17T22:00:27.186Z,70.10
2023-03-17T22:03:01.267Z,71.00
2023-03-17T22:05:51.347Z,71.00
2023-03-17T22:08:24.318Z,70.40
2023-03-17T22:11:14.104Z,71.10
2023-03-17T22:13:45.251Z,71.90
2023-03-17T22:19:23.059Z,72.10
2023-03-17T22:21:53.611Z,72.30
2023-03-17T22:24:43.689Z,72.50
2023-03-17T22:27:32.346Z,72.40
2023-03-17T22:30:22.530Z,72.20
2023-03-17T22:33:10.699Z,73.50
2023-03-17T22:35:40.709Z,74.00
2023-03-17T22:38:13.374Z,75.20
2023-03-17T22:40:44.933Z,75.90
2023-03-17T22:46:02.300Z,75.60
2023-03-17T22:48:33.207Z,75.70
2023-03-17T22:51:21.962Z,75.70
2023-03-17T22:53:53.097Z,76.20
2023-03-17T22:59:12.065Z,77.60
2023-03-17T23:01:41.783Z,77.50
2023-03-17T23:04:11.748Z,77.80
2023-03-17T23:06:41.723Z,77.40
2023-03-17T23:12:00.393Z,77.90
2023-03-17T23:15:24.235Z,77.60
2023-03-17T23:17:54.392Z,77.40
2023-03-17T23:20:26.241Z,77.90
2023-03-17T23:23:15.418Z,77.50
2023-03-17T23:25:52.997Z,78.60
2023-03-17T23:28:25.169Z,78.40
2023-03-17T23:31:15.040Z,78.80
2023-03-17T23:37:06.895Z,78.70
2023-03-17T23:42:59.460Z,77.90
2023-03-17T23:45:31.103Z,78.20
2023-03-17T23:48:01.009Z,78.70
2023-03-17T23:50:32.753Z,78.70
2023-03-17T23:53:03.132Z,78.90
2023-03-17T23:55:52.276Z,78.80
2023-03-17T23:58:40.619Z,79.00
